createdAt,value
2018-11-10T00:02:19.593Z,31.40
2018-11-10T00:04:47.761Z,28.13
2018-11-10T00:07:15.937Z,36.33
2018-11-10T00:09:44.181Z,31.03
2018-11-10T00:12:12.373Z,32.57
2018-11-10T00:14:40.529Z,30.83
2018-11-10T00:17:08.729Z,36.77
2018-11-10T00:19:36.971Z,32.70
2018-11-10T00:22:05.154Z,34.70
2018-11-10T00:24:33.290Z,26.27
2018-11-10T00:27:02.347Z,34.60
2018-11-10T00:29:30.517Z,32.97
2018-11-10T00:31:58.648Z,35.53
2018-11-10T00:34:26.830Z,38.80
2018-11-10T00:36:55.040Z,34.90
2018-11-10T00:39:23.187Z,32.73
2018-11-10T00:41:51.337Z,32.37
2018-11-10T00:44:19.525Z,34.27
2018-11-10T00:46:47.688Z,28.73
2018-11-10T00:49:15.885Z,32.80
2018-11-10T00:51:44.038Z,34.73
2018-11-10T00:54:12.209Z,31.10
2018-11-10T00:56:40.358Z,32.63
2018-11-10T00:59:08.565Z,32.03
2018-11-10T01:01:36.714Z,34.30
2018-11-10T01:04:11.939Z,34.57
2018-11-10T01:06:40.137Z,34.60
2018-11-10T01:09:09.030Z,32.10
2018-11-10T01:11:37.175Z,36.17
2018-11-10T01:14:05.376Z,34.43
2018-11-10T01:16:33.548Z,34.93
2018-11-10T01:19:01.702Z,35.83
2018-11-10T01:21:29.852Z,39.63
2018-11-10T01:23:57.982Z,25.77
2018-11-10T01:26:26.113Z,37.83
2018-11-10T01:28:54.299Z,33.60
2018-11-10T01:31:22.709Z,33.17
2018-11-10T01:33:50.893Z,31.77
2018-11-10T01:36:19.065Z,40.77
2018-11-10T01:38:47.225Z,36.87
2018-11-10T01:41:15.398Z,36.70
2018-11-10T01:43:43.533Z,40.67
2018-11-10T01:46:11.713Z,37.90
2018-11-10T01:48:39.882Z,35.73
2018-11-10T01:51:08.105Z,38.97
2018-11-10T01:53:36.297Z,35.00
2018-11-10T01:56:04.820Z,37.53
2018-11-10T01:58:33.025Z,36.57
2018-11-10T02:01:01.218Z,35.90
2018-11-10T02:03:29.431Z,35.73
2018-11-10T02:05:57.553Z,35.93
2018-11-10T02:08:25.710Z,41.67
2018-11-10T02:10:53.841Z,38.60
2018-11-10T02:13:22.040Z,36.60
2018-11-10T02:15:50.193Z,34.97
2018-11-10T02:18:18.338Z,36.00
2018-11-10T02:20:46.553Z,38.10
2018-11-10T02:23:14.745Z,36.43
2018-11-10T02:25:42.893Z,35.87
2018-11-10T02:28:11.069Z,37.43
2018-11-10T02:30:39.254Z,36.63
2018-11-10T02:33:07.414Z,40.37
2018-11-10T02:35:35.536Z,36.70
2018-11-10T02:38:03.760Z,38.40
2018-11-10T02:40:31.886Z,39.23
2018-11-10T02:43:00.056Z,36.73
2018-11-10T02:45:28.218Z,36.20
2018-11-10T02:47:56.399Z,40.13
2018-11-10T02:50:24.537Z,37.57
2018-11-10T02:52:52.768Z,35.40
2018-11-10T02:55:20.945Z,37.40
2018-11-10T02:57:49.120Z,36.93
2018-11-10T03:00:17.305Z,40.67
2018-11-10T03:02:45.502Z,40.10
2018-11-10T03:05:13.698Z,38.03
2018-11-10T03:07:42.173Z,41.50
2018-11-10T03:10:11.148Z,36.20
2018-11-10T03:12:40.237Z,41.00
2018-11-10T03:15:09.236Z,37.23
2018-11-10T03:17:37.705Z,40.83
2018-11-10T03:20:07.741Z,39.00
2018-11-10T03:22:35.925Z,38.70
2018-11-10T03:25:04.409Z,41.57
2018-11-10T03:27:32.674Z,40.30
2018-11-10T03:30:00.854Z,35.77
2018-11-10T03:32:29.049Z,42.70
2018-11-10T03:34:57.237Z,41.30
2018-11-10T03:37:25.351Z,40.97
2018-11-10T03:39:54.065Z,38.37
2018-11-10T03:42:22.265Z,40.50
2018-11-10T03:44:50.438Z,38.13
2018-11-10T03:47:18.651Z,37.07
2018-11-10T03:49:46.939Z,39.97
2018-11-10T03:52:15.189Z,39.27
2018-11-10T03:54:43.501Z,37.73
2018-11-10T03:57:11.685Z,34.00
2018-11-10T03:59:39.842Z,35.77
2018-11-10T04:02:08.228Z,38.10
2018-11-10T04:04:36.382Z,34.93
2018-11-10T04:07:05.921Z,37.77
2018-11-10T04:09:34.061Z,38.67
2018-11-10T04:12:02.242Z,35.77
2018-11-10T04:14:30.433Z,35.30
2018-11-10T04:16:58.687Z,42.23
2018-11-10T04:19:26.864Z,36.27
2018-11-10T04:21:55.046Z,37.07
2018-11-10T04:24:23.174Z,37.00
2018-11-10T04:26:51.572Z,35.53
2018-11-10T04:29:19.742Z,34.93
2018-11-10T04:31:47.974Z,40.50
2018-11-10T04:34:16.194Z,35.37
2018-11-10T04:36:44.386Z,32.60
2018-11-10T04:39:12.562Z,36.23
2018-11-10T04:41:40.733Z,30.40
2018-11-10T04:44:08.957Z,36.80
2018-11-10T04:46:37.121Z,34.17
2018-11-10T04:49:05.594Z,36.70
2018-11-10T04:51:33.801Z,33.60
2018-11-10T04:54:01.958Z,33.03
2018-11-10T04:56:30.131Z,36.53
2018-11-10T04:58:58.289Z,35.67
2018-11-10T05:01:26.472Z,33.93
2018-11-10T05:03:54.573Z,32.80
2018-11-10T05:06:22.754Z,33.40
2018-11-10T05:08:50.881Z,35.60
2018-11-10T05:11:18.998Z,33.23
2018-11-10T05:13:47.197Z,34.03
2018-11-10T05:16:15.334Z,36.83
2018-11-10T05:18:43.550Z,35.40
2018-11-10T05:21:11.673Z,36.00
2018-11-10T05:23:39.854Z,38.17
2018-11-10T05:26:08.017Z,33.90
2018-11-10T05:28:36.218Z,36.20
2018-11-10T05:31:04.573Z,38.10
2018-11-10T05:33:32.733Z,37.07
2018-11-10T05:36:00.914Z,38.10
2018-11-10T05:38:29.049Z,37.10
2018-11-10T05:40:57.934Z,36.10
2018-11-10T05:43:26.053Z,39.20
2018-11-10T05:45:54.257Z,37.80
2018-11-10T05:48:22.413Z,39.47
2018-11-10T05:50:50.677Z,34.60
2018-11-10T05:53:18.841Z,35.50
2018-11-10T05:55:47.013Z,39.30
2018-11-10T05:58:15.153Z,41.63
2018-11-10T06:00:43.382Z,37.57
2018-11-10T06:03:11.599Z,38.93
2018-11-10T06:05:39.722Z,35.83
2018-11-10T06:08:07.921Z,41.73
2018-11-10T06:10:36.084Z,38.57
2018-11-10T06:13:04.293Z,41.17
2018-11-10T06:15:32.477Z,38.40
2018-11-10T06:18:00.610Z,40.47
2018-11-10T06:20:28.741Z,40.20
2018-11-10T06:22:56.926Z,41.27
2018-11-10T06:25:25.132Z,39.17
2018-11-10T06:27:53.318Z,34.17
2018-11-10T06:30:21.518Z,38.50
2018-11-10T06:32:49.677Z,34.30
2018-11-10T06:35:17.805Z,37.27
2018-11-10T06:37:45.995Z,39.03
2018-11-10T06:40:14.565Z,37.13
2018-11-10T06:42:44.361Z,37.50
2018-11-10T06:45:12.678Z,42.13
2018-11-10T06:47:40.893Z,40.80
2018-11-10T06:50:10.143Z,38.00
2018-11-10T06:52:38.367Z,37.57
2018-11-10T06:55:07.207Z,42.23
2018-11-10T06:57:35.387Z,46.70
2018-11-10T07:00:03.922Z,38.00
2018-11-10T07:02:32.101Z,38.97
2018-11-10T07:05:00.388Z,34.50
2018-11-10T07:07:28.592Z,37.60
2018-11-10T07:09:56.779Z,39.20
2018-11-10T07:12:25.630Z,37.57
2018-11-10T07:14:53.833Z,38.50
2018-11-10T07:17:22.061Z,39.33
2018-11-10T07:19:50.277Z,33.80
2018-11-10T07:22:18.445Z,35.17
2018-11-10T07:24:46.717Z,38.57
2018-11-10T07:27:14.911Z,36.70
2018-11-10T07:29:43.091Z,35.77
2018-11-10T07:32:11.241Z,41.47
2018-11-10T07:34:39.414Z,36.30
2018-11-10T07:37:07.548Z,39.47
2018-11-10T07:39:35.682Z,35.23
2018-11-10T07:42:03.826Z,37.63
2018-11-10T07:44:31.999Z,38.83
2018-11-10T07:47:00.199Z,36.30
2018-11-10T07:49:28.408Z,37.50
2018-11-10T07:51:56.630Z,38.90
2018-11-10T07:54:24.770Z,36.97
2018-11-10T07:56:53.076Z,35.20
2018-11-10T07:59:21.283Z,37.37
2018-11-10T08:01:49.609Z,36.00
2018-11-10T08:04:17.793Z,37.27
2018-11-10T08:06:45.993Z,35.73
2018-11-10T08:09:15.177Z,36.77
2018-11-10T08:11:43.395Z,36.77
2018-11-10T08:14:11.566Z,34.60
2018-11-10T08:16:39.749Z,36.40
2018-11-10T08:19:08.241Z,34.00
2018-11-10T08:21:36.417Z,37.47
2018-11-10T08:24:05.086Z,35.20
2018-11-10T08:26:33.278Z,32.93
2018-11-10T08:29:01.411Z,35.10
2018-11-10T08:31:29.841Z,37.90
2018-11-10T08:33:58.030Z,37.53
2018-11-10T08:36:26.802Z,37.60
2018-11-10T08:38:54.980Z,35.10
2018-11-10T08:41:23.181Z,35.47
2018-11-10T08:43:52.138Z,37.40
2018-11-10T08:46:21.435Z,40.00
2018-11-10T08:48:49.553Z,35.80
2018-11-10T08:51:17.695Z,32.40
2018-11-10T08:53:45.834Z,36.80
2018-11-10T08:56:13.985Z,33.77
2018-11-10T08:58:42.129Z,35.07
2018-11-10T09:01:10.272Z,32.80
2018-11-10T09:03:38.407Z,36.37
2018-11-10T09:06:06.671Z,33.67
2018-11-10T09:08:34.869Z,32.10
2018-11-10T09:11:03.035Z,34.37
2018-11-10T09:13:31.216Z,34.40
2018-11-10T09:15:59.389Z,32.30
2018-11-10T09:18:27.570Z,34.57
2018-11-10T09:20:55.781Z,30.97
2018-11-10T09:23:23.940Z,34.33
2018-11-10T09:25:52.225Z,37.93
2018-11-10T09:28:20.397Z,32.37
2018-11-10T09:30:48.566Z,36.40
2018-11-10T09:33:16.753Z,37.53
2018-11-10T09:35:44.957Z,36.43
2018-11-10T09:38:13.129Z,34.67
2018-11-10T09:40:41.281Z,35.97
2018-11-10T09:43:09.421Z,33.60
2018-11-10T09:45:37.592Z,33.60
2018-11-10T09:48:05.813Z,34.13
2018-11-10T09:50:33.972Z,36.73
2018-11-10T09:53:02.105Z,35.00
2018-11-10T09:55:30.237Z,33.83
2018-11-10T09:57:58.365Z,34.47
2018-11-10T10:00:26.560Z,35.37
2018-11-10T10:02:54.714Z,32.57
2018-11-10T10:05:22.853Z,31.07
2018-11-10T10:07:51.028Z,35.70
2018-11-10T10:10:19.434Z,35.33
2018-11-10T10:12:47.790Z,33.30
2018-11-10T10:15:17.109Z,33.50
2018-11-10T10:17:45.689Z,33.33
2018-11-10T10:20:15.908Z,32.70
2018-11-10T10:22:44.993Z,30.13
2018-11-10T10:25:14.083Z,29.63
2018-11-10T10:27:42.778Z,34.43
2018-11-10T10:30:14.746Z,28.50
2018-11-10T10:32:43.801Z,29.83
2018-11-10T10:35:12.509Z,32.27
2018-11-10T10:37:40.481Z,33.33
2018-11-10T10:40:10.230Z,28.73
2018-11-10T10:42:38.454Z,29.87
2018-11-10T10:45:09.733Z,33.60
2018-11-10T10:47:37.933Z,29.53
2018-11-10T10:50:06.964Z,31.77
2018-11-10T10:52:35.219Z,30.30
2018-11-10T10:55:03.393Z,26.00
2018-11-10T10:57:31.817Z,30.60
2018-11-10T11:00:00.037Z,29.10
2018-11-10T11:02:33.711Z,28.00
2018-11-10T11:05:09.178Z,29.23
2018-11-10T11:07:37.857Z,27.20
2018-11-10T11:10:07.562Z,27.50
2018-11-10T11:12:35.773Z,27.70
2018-11-10T11:15:04.036Z,26.93
2018-11-10T11:17:32.195Z,28.50
2018-11-10T11:20:00.386Z,29.57
2018-11-10T11:22:28.582Z,28.77
2018-11-10T11:24:57.061Z,27.07
2018-11-10T11:27:25.239Z,25.60
2018-11-10T11:29:53.579Z,25.40
2018-11-10T11:32:22.669Z,24.80
2018-11-10T11:34:51.274Z,23.63
2018-11-10T11:37:19.429Z,25.50
2018-11-10T11:39:47.782Z,24.80
2018-11-10T11:42:17.544Z,23.17
2018-11-10T11:44:45.715Z,30.27
2018-11-10T11:47:14.117Z,24.70
2018-11-10T11:49:42.311Z,26.40
2018-11-10T11:52:10.454Z,23.10
2018-11-10T11:54:38.854Z,23.60
2018-11-10T11:57:07.062Z,25.60
2018-11-10T11:59:35.386Z,23.00
2018-11-10T12:02:03.638Z,23.57
2018-11-10T12:04:31.816Z,24.10
2018-11-10T12:06:59.951Z,23.37
2018-11-10T12:09:28.162Z,23.40
2018-11-10T12:11:56.307Z,23.13
2018-11-10T12:14:24.481Z,22.20
2018-11-10T12:16:52.683Z,21.97
2018-11-10T12:19:20.832Z,22.90
2018-11-10T12:21:49.030Z,20.23
2018-11-10T12:24:17.173Z,22.17
2018-11-10T12:26:45.389Z,22.23
2018-11-10T12:29:13.578Z,22.03
2018-11-10T12:31:41.800Z,20.17
2018-11-10T12:34:10.230Z,20.70
2018-11-10T12:36:39.017Z,21.53
2018-11-10T12:39:07.921Z,22.10
2018-11-10T12:41:36.110Z,23.53
2018-11-10T12:44:04.393Z,19.00
2018-11-10T12:46:32.530Z,20.00
2018-11-10T12:49:00.722Z,21.00
2018-11-10T12:51:28.853Z,20.23
2018-11-10T12:53:57.017Z,21.53
2018-11-10T12:56:25.206Z,20.53
2018-11-10T12:58:53.390Z,18.80
2018-11-10T13:01:21.546Z,21.57
2018-11-10T13:03:49.930Z,19.47
2018-11-10T13:06:18.156Z,20.40
2018-11-10T13:08:46.350Z,20.07
2018-11-10T13:11:14.642Z,21.20
2018-11-10T13:13:42.717Z,20.53
2018-11-10T13:16:10.922Z,20.43
2018-11-10T13:18:39.123Z,19.30
2018-11-10T13:21:07.329Z,19.13
2018-11-10T13:23:35.494Z,19.40
2018-11-10T13:26:03.789Z,19.97
2018-11-10T13:28:32.020Z,18.73
2018-11-10T13:31:00.295Z,20.13
2018-11-10T13:33:28.401Z,18.50
2018-11-10T13:35:56.538Z,19.20
2018-11-10T13:38:24.709Z,21.70
2018-11-10T13:40:52.870Z,18.20
2018-11-10T13:43:21.072Z,20.83
2018-11-10T13:45:49.244Z,19.10
2018-11-10T13:48:17.425Z,19.03
2018-11-10T13:50:45.743Z,16.17
2018-11-10T13:53:13.715Z,23.00
2018-11-10T13:55:41.853Z,22.27
2018-11-10T13:58:10.113Z,18.90
2018-11-10T14:00:38.289Z,18.30
2018-11-10T14:03:06.470Z,20.30
2018-11-10T14:05:34.694Z,18.63
2018-11-10T14:08:02.873Z,20.80
2018-11-10T14:10:31.030Z,20.80
2018-11-10T14:12:59.231Z,20.70
2018-11-10T14:15:27.414Z,21.93
2018-11-10T14:17:55.553Z,20.27
2018-11-10T14:20:23.742Z,19.47
2018-11-10T14:22:51.798Z,21.10
2018-11-10T14:25:20.005Z,21.70
2018-11-10T14:27:48.142Z,19.50
2018-11-10T14:30:17.456Z,22.67
2018-11-10T14:32:46.013Z,20.30
2018-11-10T14:35:14.421Z,20.03
2018-11-10T14:37:42.626Z,22.13
2018-11-10T14:40:12.372Z,19.47
2018-11-10T14:42:41.145Z,21.10
2018-11-10T14:45:11.069Z,23.40
2018-11-10T14:47:39.386Z,22.40
2018-11-10T14:50:08.555Z,21.13
2018-11-10T14:52:36.857Z,21.77
2018-11-10T14:55:05.710Z,26.00
2018-11-10T14:57:33.898Z,21.87
2018-11-10T15:00:02.070Z,22.47
2018-11-10T15:02:30.271Z,21.63
2018-11-10T15:04:58.449Z,20.93
2018-11-10T15:07:26.697Z,20.43
2018-11-10T15:09:54.892Z,21.77
2018-11-10T15:12:23.113Z,21.40
2018-11-10T15:14:51.262Z,20.60
2018-11-10T15:17:19.485Z,20.67
2018-11-10T15:19:47.737Z,21.20
2018-11-10T15:22:15.941Z,19.13
2018-11-10T15:24:44.156Z,20.27
2018-11-10T15:27:12.281Z,20.23
2018-11-10T15:29:40.458Z,17.23
2018-11-10T15:32:08.661Z,18.53
2018-11-10T15:34:36.901Z,18.40
2018-11-10T15:37:05.277Z,18.50
2018-11-10T15:39:33.441Z,18.50
2018-11-10T15:42:01.634Z,20.53
2018-11-10T15:44:29.853Z,16.37
2018-11-10T15:46:57.985Z,18.20
2018-11-10T15:49:26.174Z,17.43
2018-11-10T15:51:54.369Z,17.40
2018-11-10T15:54:22.689Z,16.07
2018-11-10T15:56:50.896Z,17.80
2018-11-10T15:59:19.053Z,17.90
2018-11-10T16:01:47.241Z,16.87
2018-11-10T16:04:15.404Z,16.80
2018-11-10T16:06:43.520Z,18.27
2018-11-10T16:09:12.818Z,15.37
2018-11-10T16:11:40.997Z,18.60
2018-11-10T16:14:09.173Z,18.10
2018-11-10T16:16:37.425Z,17.00
2018-11-10T16:19:05.897Z,17.93
2018-11-10T16:21:34.289Z,17.60
2018-11-10T16:24:02.458Z,18.23
2018-11-10T16:26:30.675Z,18.60
2018-11-10T16:28:58.863Z,18.67
2018-11-10T16:31:27.093Z,19.17
2018-11-10T16:33:55.241Z,19.70
2018-11-10T16:36:23.417Z,20.53
2018-11-10T16:38:51.830Z,20.30
2018-11-10T16:41:20.025Z,19.50
2018-11-10T16:43:48.189Z,19.60
2018-11-10T16:46:16.374Z,20.03
2018-11-10T16:48:44.537Z,20.20
2018-11-10T16:51:12.777Z,21.50
2018-11-10T16:53:40.933Z,22.17
2018-11-10T16:56:09.082Z,23.80
2018-11-10T16:58:37.285Z,21.07
2018-11-10T17:01:05.501Z,21.73
2018-11-10T17:03:33.667Z,21.50
2018-11-10T17:06:01.880Z,21.10
2018-11-10T17:08:30.132Z,21.47
2018-11-10T17:10:58.209Z,24.97
2018-11-10T17:13:26.551Z,21.37
2018-11-10T17:15:54.719Z,24.37
2018-11-10T17:18:22.885Z,22.80
2018-11-10T17:20:51.049Z,23.57
2018-11-10T17:23:19.425Z,22.13
2018-11-10T17:25:47.593Z,24.00
2018-11-10T17:28:15.768Z,22.27
2018-11-10T17:30:43.912Z,21.93
2018-11-10T17:33:12.094Z,22.50
2018-11-10T17:35:40.265Z,24.87
2018-11-10T17:38:08.488Z,26.00
2018-11-10T17:40:36.577Z,25.20
2018-11-10T17:43:04.912Z,23.63
2018-11-10T17:45:33.049Z,21.47
2018-11-10T17:48:01.242Z,22.10
2018-11-10T17:50:29.466Z,23.53
2018-11-10T17:52:57.565Z,21.97
2018-11-10T17:55:25.727Z,24.07
2018-11-10T17:57:57.435Z,22.33
2018-11-10T18:00:25.441Z,23.83
2018-11-10T18:02:53.612Z,22.23
2018-11-10T18:05:24.745Z,23.57
2018-11-10T18:07:52.933Z,23.93
2018-11-10T18:10:21.137Z,22.80
2018-11-10T18:12:49.387Z,21.37
2018-11-10T18:15:17.549Z,22.83
2018-11-10T18:17:46.009Z,21.47
2018-11-10T18:20:15.333Z,21.93
2018-11-10T18:22:44.137Z,21.50
2018-11-10T18:25:12.507Z,21.60
2018-11-10T18:27:40.597Z,20.53
2018-11-10T18:30:10.277Z,20.23
2018-11-10T18:32:38.508Z,19.70
2018-11-10T18:35:07.556Z,19.57
2018-11-10T18:37:35.845Z,18.93
2018-11-10T18:40:04.335Z,19.83
2018-11-10T18:42:32.473Z,18.60
2018-11-10T18:45:00.849Z,19.13
2018-11-10T18:47:29.035Z,21.27
2018-11-10T18:49:57.190Z,20.90
2018-11-10T18:52:25.419Z,20.13
2018-11-10T18:54:53.524Z,20.40
2018-11-10T18:57:21.861Z,20.20
2018-11-10T18:59:49.821Z,19.53
2018-11-10T19:02:17.978Z,19.80
2018-11-10T19:04:46.130Z,21.43
2018-11-10T19:07:14.328Z,21.83
2018-11-10T19:09:42.461Z,21.20
2018-11-10T19:12:10.621Z,22.23
2018-11-10T19:14:38.794Z,22.10
2018-11-10T19:17:06.993Z,22.40
2018-11-10T19:19:35.153Z,22.17
2018-11-10T19:22:03.317Z,22.17
2018-11-10T19:24:31.433Z,21.50
2018-11-10T19:26:59.614Z,22.37
2018-11-10T19:29:27.863Z,22.60
2018-11-10T19:31:56.042Z,24.77
2018-11-10T19:34:24.318Z,24.40
2018-11-10T19:36:52.501Z,28.20
2018-11-10T19:39:20.741Z,26.70
2018-11-10T19:41:48.930Z,26.63
2018-11-10T19:44:17.111Z,26.23
2018-11-10T19:46:45.318Z,26.07
2018-11-10T19:49:13.473Z,25.43
2018-11-10T19:51:41.854Z,25.40
2018-11-10T19:54:09.796Z,26.23
2018-11-10T19:56:37.958Z,24.67
2018-11-10T19:59:06.220Z,22.77
2018-11-10T20:01:34.347Z,24.33
2018-11-10T20:04:02.569Z,25.90
2018-11-10T20:06:30.776Z,25.33
2018-11-10T20:08:58.975Z,25.17
2018-11-10T20:11:27.199Z,27.23
2018-11-10T20:13:55.481Z,24.53
2018-11-10T20:16:23.578Z,24.63
2018-11-10T20:18:51.749Z,24.17
2018-11-10T20:21:19.979Z,24.47
2018-11-10T20:23:48.235Z,23.73
2018-11-10T20:26:16.373Z,27.03
2018-11-10T20:28:44.540Z,25.20
2018-11-10T20:31:13.262Z,24.83
2018-11-10T20:33:41.505Z,23.73
2018-11-10T20:36:09.673Z,24.67
2018-11-10T20:38:37.847Z,23.30
2018-11-10T20:41:06.438Z,24.90
2018-11-10T20:43:34.653Z,24.97
2018-11-10T20:46:02.769Z,23.70
2018-11-10T20:48:30.954Z,24.40
2018-11-10T20:50:59.132Z,25.93
2018-11-10T20:53:27.279Z,23.50
2018-11-10T20:55:55.444Z,25.37
2018-11-10T20:58:23.625Z,26.77
2018-11-10T21:00:51.842Z,26.03
2018-11-10T21:03:20.007Z,26.50
2018-11-10T21:05:48.690Z,26.73
2018-11-10T21:08:16.869Z,26.27
2018-11-10T21:10:45.055Z,25.87
2018-11-10T21:13:13.230Z,25.47
2018-11-10T21:15:41.439Z,25.90
2018-11-10T21:18:09.669Z,26.80
2018-11-10T21:20:37.841Z,25.70
2018-11-10T21:23:06.011Z,24.83
2018-11-10T21:25:34.373Z,25.53
2018-11-10T21:28:02.527Z,23.60
2018-11-10T21:30:30.725Z,22.37
2018-11-10T21:32:58.865Z,24.55
2018-11-10T21:35:27.136Z,21.75
2018-11-10T21:37:55.649Z,22.00
2018-11-10T21:40:23.814Z,20.37
2018-11-10T21:42:51.983Z,20.47
2018-11-10T21:45:20.138Z,20.27
2018-11-10T21:47:48.323Z,19.40
2018-11-10T21:50:17.724Z,20.40
2018-11-10T21:52:46.216Z,18.67
2018-11-10T21:55:15.725Z,19.30
2018-11-10T21:57:44.628Z,20.40
2018-11-10T22:00:14.513Z,19.33
2018-11-10T22:02:43.409Z,20.13
2018-11-10T22:05:11.689Z,21.33
2018-11-10T22:07:40.806Z,21.77
2018-11-10T22:10:11.027Z,20.20
2018-11-10T22:12:39.387Z,20.97
2018-11-10T22:15:09.820Z,19.63
2018-11-10T22:17:37.981Z,21.30
2018-11-10T22:20:07.766Z,20.23
2018-11-10T22:22:36.037Z,20.00
2018-11-10T22:25:04.226Z,20.00
2018-11-10T22:27:32.361Z,19.07
2018-11-10T22:30:00.589Z,21.47
2018-11-10T22:32:28.826Z,20.23
2018-11-10T22:34:57.151Z,21.40
2018-11-10T22:37:25.297Z,21.20
2018-11-10T22:39:53.509Z,22.53
2018-11-10T22:42:21.686Z,20.93
2018-11-10T22:44:49.905Z,22.10
2018-11-10T22:47:18.130Z,21.40
2018-11-10T22:49:46.306Z,21.70
2018-11-10T22:52:14.438Z,22.00
2018-11-10T22:54:42.635Z,20.93
2018-11-10T22:57:10.765Z,23.20
2018-11-10T22:59:38.977Z,20.90
2018-11-10T23:02:07.149Z,20.17
2018-11-10T23:04:35.309Z,21.73
2018-11-10T23:07:03.709Z,22.27
2018-11-10T23:09:31.858Z,20.80
2018-11-10T23:12:00.980Z,19.30
2018-11-10T23:14:29.171Z,19.53
2018-11-10T23:16:57.336Z,20.23
2018-11-10T23:19:25.507Z,19.00
2018-11-10T23:21:53.638Z,19.83
2018-11-10T23:24:21.845Z,21.93
2018-11-10T23:26:50.049Z,20.80
2018-11-10T23:29:18.454Z,19.03
2018-11-10T23:31:46.637Z,20.43
2018-11-10T23:34:15.107Z,18.97
2018-11-10T23:36:43.245Z,18.50
2018-11-10T23:39:12.646Z,20.60
2018-11-10T23:41:41.293Z,20.37
2018-11-10T23:44:10.073Z,19.87
2018-11-10T23:46:39.053Z,20.07
2018-11-10T23:49:07.873Z,17.83
2018-11-10T23:51:36.002Z,17.43
2018-11-10T23:54:04.402Z,16.53
2018-11-10T23:56:32.590Z,17.53
2018-11-10T23:59:00.835Z,18.53
